Flight Track Log - Related Links

Times and Time Zones

All times are in EDT time to prevent confusion due to time zone crossing. See the SWA3383 flight status page for this flight to view local times or setup timezone preferences in your user account.

Time Position Orientation Groundspeed Altitude Reporting Facility
EDT Latitude Longitude Course Direction KTS MPH feet Rate Location/Type
Wed 08:14:03 AM 42.7681 -73.8058 326° Northwest 163 188 1,200  Level Boston Center
Wed 08:15:16 AM 42.8231 -73.8567 332° Northwest 230 265 3,800 2,143 Climbing Boston Center
Wed 08:16:09 AM 42.8617 -73.9275 307° West 251 289 5,700 3,130 Climbing Boston Center
Wed 08:17:11 AM 42.9072 -74.0106 307° West 271 312 9,800 3,463 Climbing Boston Center
Wed 08:18:12 AM 42.9178 -74.1094 278° West 301 346 12,800 2,803 Climbing Boston Center
Wed 08:19:13 AM 42.8483 -74.1792 216° Southwest 311 358 15,500 2,607 Climbing Boston Center
Wed 08:20:14 AM 42.7592 -74.2647 215° Southwest 361 415 18,100 2,293 Climbing Boston Center
Wed 08:21:16 AM 42.6825 -74.3336 213° Southwest 372 428 20,200 2,293 Climbing Boston Center
Wed 08:22:17 AM 42.5756 -74.3758 196° South 394 453 22,800 2,361 Climbing Boston Center
Wed 08:23:18 AM 42.4592 -74.3461 169° South 419 482 25,000 1,869 Climbing Boston Center
Wed 08:24:19 AM 42.3417 -74.3075 166° South 427 491 26,600 1,721 Climbing Boston Center
Wed 08:25:20 AM 42.2203 -74.2683 167° South 439 505 28,500 1,951 Climbing Boston Center
Wed 08:26:22 AM 42.0711 -74.2208 167° South 449 517 30,600 2,049 Climbing Boston Center
Wed 08:27:23 AM 41.9467 -74.1806 166° South 455 524 32,700 1,967 Climbing Boston Center
Wed 08:28:24 AM 41.8258 -74.2042 188° South 440 506 34,600 1,574 Climbing Boston Center
Wed 08:29:25 AM 41.7153 -74.2461 196° South 431 496 35,900 1,220 Climbing Boston Center
Wed 08:30:27 AM 41.5975 -74.2897 195° South 432 497 37,100 1,033 Climbing Boston Center
Wed 08:31:27 AM 41.4803 -74.3333 196° South 436 502 38,000 443 Climbing Boston Center
Wed 08:32:29 AM 41.3653 -74.3772 196° South 435 501 38,000  Level Boston Center
Wed 08:33:30 AM 41.2375 -74.4242 195° South 435 501 38,000  Level Boston Center
Wed 08:34:31 AM 41.1206 -74.4656 195° South 435 501 38,000  Level Boston Center
Wed 08:35:32 AM 41.0050 -74.5078 195° South 435 501 38,000  Level Boston Center
Wed 08:36:34 AM 40.8889 -74.5506 196° South 434 499 38,000  Level Boston Center
Wed 08:37:35 AM 40.7731 -74.5919 195° South 434 499 38,000  Level Boston Center
Wed 08:38:36 AM 40.6558 -74.6353 196° South 434 499 38,000  Level Boston Center
Wed 08:39:37 AM 40.5158 -74.6850 195° South 434 499 38,000  Level Boston Center
Wed 08:40:39 AM 40.3997 -74.7258 195° South 434 499 38,000  Level Boston Center
Wed 08:41:40 AM 40.2844 -74.7658 195° South 430 495 38,000  Level Boston Center
Wed 08:42:41 AM 40.1694 -74.8072 195° South 428 493 38,000  Level Boston Center
Wed 08:43:55 AM 40.0331 -74.8544 195° South 427 491 38,000  Level Washington Center
Wed 08:44:59 AM 39.9083 -74.8975 195° South 426 490 38,000  Level Washington Center
Wed 08:46:00 AM 39.7839 -74.9444 196° South 431 496 38,000  Level Washington Center
Wed 08:47:04 AM 39.6708 -74.9911 198° South 424 488 38,000  Level Washington Center
Wed 08:48:04 AM 39.5653 -75.0342 197° South 432 497 38,000  Level Washington Center
Wed 08:49:08 AM 39.4531 -75.0781 197° South 427 491 38,000  Level Washington Center
Wed 08:50:09 AM 39.3178 -75.1311 197° South 426 490 38,000  Level Washington Center
Wed 08:51:10 AM 39.2058 -75.1744 197° South 425 489 38,000  Level Washington Center
Wed 08:52:14 AM 39.0933 -75.2175 197° South 423 487 38,000  Level Washington Center
Wed 08:53:15 AM 38.9836 -75.2633 198° South 420 483 38,000  Level Washington Center
Wed 08:54:19 AM 38.8717 -75.3053 196° South 419 482 38,000  Level Washington Center
Wed 08:55:21 AM 38.7614 -75.3500 198° South 419 482 38,000  Level Washington Center
Wed 08:56:21 AM 38.6264 -75.4006 196° South 420 483 38,000  Level Washington Center
Wed 08:57:25 AM 38.5139 -75.4431 196° South 420 483 38,000  Level Washington Center
Wed 08:58:26 AM 38.4014 -75.4858 197° South 421 484 38,000  Level Washington Center
Wed 08:59:30 AM 38.2811 -75.5447 201° Southwest 421 484 38,000  Level Washington Center
Wed 09:00:31 AM 38.1778 -75.6133 208° Southwest 421 484 38,000  Level Washington Center
Wed 09:01:32 AM 38.0731 -75.6775 206° Southwest 421 484 38,000  Level Washington Center
Wed 09:02:36 AM 37.9736 -75.7417 207° Southwest 421 484 38,000  Level Washington Center
Wed 09:03:37 AM 37.8478 -75.8189 206° Southwest 420 483 38,000  Level Washington Center
Wed 09:04:40 AM 37.7439 -75.8839 206° Southwest 420 483 38,000  Level Washington Center
Wed 09:05:41 AM 37.6394 -75.9489 206° Southwest 420 483 38,000  Level Washington Center
Wed 09:06:44 AM 37.5350 -76.0128 206° Southwest 420 483 38,000  Level Washington Center
Wed 09:07:45 AM 37.4300 -76.0769 206° Southwest 420 483 38,000  Level Washington Center
Wed 09:08:49 AM 37.3039 -76.1542 206° Southwest 421 484 38,000  Level Washington Center
Wed 09:09:50 AM 37.1944 -76.2200 206° Southwest 421 484 38,000  Level Washington Center
Wed 09:10:54 AM 37.0881 -76.2833 205° Southwest 421 484 38,000  Level Washington Center
Wed 09:11:54 AM 36.9833 -76.3486 206° Southwest 421 484 38,000  Level Washington Center
Wed 09:12:58 AM 36.8775 -76.4106 205° Southwest 421 484 38,000  Level Washington Center
Wed 09:13:58 AM 36.7722 -76.4742 206° Southwest 421 484 38,000  Level Washington Center
Wed 09:15:02 AM 36.6558 -76.5447 206° Southwest 422 486 38,000  Level Washington Center
Wed 09:16:03 AM 36.5497 -76.6067 205° Southwest 422 486 38,000  Level Washington Center
Wed 09:17:07 AM 36.4442 -76.6708 206° Southwest 423 487 38,000 32 Level Washington Center
Wed 09:19:09 AM 36.2089 -76.8086 205° Southwest 425 489 38,100 357 Climbing Washington Center
Wed 09:20:12 AM 36.1031 -76.8703 205° Southwest 425 489 39,100 919 Climbing Washington Center
Wed 09:21:13 AM 35.9969 -76.9347 206° Southwest 424 488 40,000 435 Climbing Washington Center
Wed 09:22:16 AM 35.8867 -76.9872 201° Southwest 425 489 40,000  Level Washington Center
Wed 09:23:20 AM 35.7731 -77.0292 197° South 427 491 40,000  Level Washington Center
Wed 09:24:21 AM 35.6383 -77.0825 198° South 427 491 40,000  Level Washington Center
Wed 09:25:24 AM 35.5161 -77.1289 197° South 427 491 40,000  Level Washington Center
Wed 09:26:25 AM 35.4033 -77.1728 198° South 425 489 40,000  Level Washington Center
Wed 09:27:27 AM 35.2900 -77.2172 198° South 425 489 40,000  Level Washington Center
Wed 09:28:30 AM 35.1772 -77.2614 198° South 425 489 40,000  Level Washington Center
Wed 09:29:31 AM 35.0642 -77.3044 197° South 425 489 40,000  Level Washington Center
Wed 09:30:34 AM 34.9514 -77.3483 198° South 424 488 40,000  Level Washington Center
Wed 09:31:34 AM 34.8147 -77.4014 198° South 425 489 40,000  Level Washington Center
Wed 09:32:38 AM 34.7181 -77.4381 197° South 425 489 40,000  Level Washington Center
Wed 09:33:39 AM 34.5822 -77.4906 198° South 426 490 40,000  Level Washington Center
Wed 09:34:43 AM 34.4683 -77.5331 197° South 424 488 40,000  Level Washington Center
Wed 09:35:44 AM 34.3558 -77.5753 197° South 424 488 40,000  Level Washington Center
Wed 09:36:45 AM 34.2442 -77.6169 197° South 421 484 40,000  Level Washington Center
Wed 09:37:49 AM 34.1317 -77.6578 197° South 421 484 40,000  Level Washington Center
Wed 09:38:28 AM 34.0483 -77.6872 196° South 429 494 40,000  Level Jacksonville Center
Wed 09:39:28 AM 33.9372 -77.7289 197° South 429 494 40,000  Level Jacksonville Center
Wed 09:40:28 AM 33.8242 -77.7681 196° South 429 494 40,000  Level Jacksonville Center
Wed 09:41:28 AM 33.7111 -77.8094 197° South 429 494 40,000  Level Jacksonville Center
Wed 09:42:28 AM 33.5939 -77.8561 198° South 434 499 40,000  Level Jacksonville Center
Wed 09:42:59 AM 33.5369 -77.8808 200° South 427 491 40,000  Level Washington Center
Wed 09:44:03 AM 33.4239 -77.9231 197° South 426 490 40,000  Level Washington Center
Wed 09:45:04 AM 33.3108 -77.9653 197° South 426 490 40,000  Level Washington Center
Wed 09:46:05 AM 33.1986 -78.0072 197° South 425 489 40,000  Level Washington Center
Wed 09:47:09 AM 33.0844 -78.0486 197° South 426 490 40,000  Level Washington Center
Wed 09:48:09 AM 32.9481 -78.1006 198° South 427 491 40,000  Level Washington Center
Wed 09:49:13 AM 32.8342 -78.1425 197° South 427 491 40,000  Level Washington Center
Wed 09:50:13 AM 32.7208 -78.1833 197° South 427 491 40,000  Level Washington Center
Wed 09:51:28 AM 32.5753 -78.2311 195° South 433 498 40,000  Level Jacksonville Center
Wed 09:52:30 AM 32.4619 -78.2689 196° South 433 498 40,000  Level Jacksonville Center
Wed 09:53:40 AM 32.3158 -78.3281 199° South 433 498 40,000  Level Jacksonville Center
Wed 09:54:40 AM 32.2028 -78.3703 198° South 438 504 40,000  Level Jacksonville Center
Wed 09:55:40 AM 32.0850 -78.4106 196° South 432 497 40,000  Level Jacksonville Center
Wed 09:56:40 AM 31.9739 -78.4503 197° South 439 505 40,000  Level Jacksonville Center
Wed 09:57:40 AM 31.8564 -78.4950 198° South 434 499 40,000  Level Jacksonville Center
Wed 09:58:40 AM 31.7431 -78.5347 197° South 424 488 40,000  Level Jacksonville Center
Wed 09:59:40 AM 31.6275 -78.5767 197° South 431 496 40,000  Level Jacksonville Center
Wed 10:00:40 AM 31.5161 -78.6158 197° South 424 488 40,000  Level Jacksonville Center
Wed 10:01:40 AM 31.4067 -78.6525 196° South 417 480 40,000  Level Jacksonville Center
Wed 10:02:40 AM 31.2914 -78.6967 198° South 422 486 40,000  Level Jacksonville Center
Wed 10:03:40 AM 31.1758 -78.7383 197° South 429 494 40,000  Level Jacksonville Center
Wed 10:04:40 AM 31.0642 -78.7722 195° South 430 495 40,000  Level Jacksonville Center
Wed 10:05:40 AM 30.9650 -78.8081 197° South 433 498 40,000  Level Jacksonville Center
Wed 10:06:40 AM 30.8453 -78.8472 196° South 433 498 40,000  Level Jacksonville Center
Wed 10:08:31 AM 30.6222 -78.9264 197° South 434 499 40,000  Level Miami Center
Wed 10:09:33 AM 30.5089 -78.9672 197° South 433 498 40,000  Level Miami Center
Wed 10:10:34 AM 30.3956 -79.0083 197° South 430 495 40,000  Level Miami Center
Wed 10:11:36 AM 30.2839 -79.0569 201° Southwest 430 495 40,000  Level Miami Center
Wed 10:12:37 AM 30.1708 -79.1061 201° Southwest 430 495 40,000  Level Miami Center
Wed 10:13:39 AM 30.0608 -79.1544 201° Southwest 429 494 40,000  Level Miami Center
Wed 10:14:41 AM 29.9483 -79.2028 200° South 429 494 40,000  Level Miami Center
Wed 10:15:42 AM 29.8381 -79.2511 201° Southwest 429 494 40,000  Level Miami Center
Wed 10:16:44 AM 29.7019 -79.3086 200° South 429 494 40,000  Level Miami Center
Wed 10:17:46 AM 29.5875 -79.3586 201° Southwest 435 501 40,000 -537 Level Miami Center
Wed 10:18:47 AM 29.4739 -79.4067 200° South 435 501 38,900 -1,707 Descending Miami Center
Wed 10:19:49 AM 29.3606 -79.4558 201° Southwest 435 501 36,500 -2,661 Descending Miami Center
Wed 10:20:51 AM 29.2456 -79.5042 200° South 435 501 33,400 -2,976 Descending Miami Center
Wed 10:21:52 AM 29.1158 -79.5597 201° Southwest 442 509 30,400 -2,732 Descending Miami Center
Wed 10:22:54 AM 29.0586 -79.6903 243° Southwest 427 491 27,800 -2,323 Descending Miami Center
Wed 10:23:56 AM 29.0206 -79.8114 250° West 422 486 25,600 -2,226 Descending Miami Center
Wed 10:24:58 AM 28.9822 -79.9381 251° West 409 471 23,200 -2,274 Descending Miami Center
Wed 10:26:00 AM 28.9447 -80.0597 251° West 393 452 20,900 -2,195 Descending Miami Center
Wed 10:27:01 AM 28.9086 -80.1783 251° West 382 440 18,700 -2,049 Descending Miami Center
Wed 10:28:03 AM 28.8736 -80.2917 251° West 366 421 16,700 -2,032 Descending Miami Center
Wed 10:29:05 AM 28.8419 -80.3939 251° West 361 415 14,500 -1,306 Descending Miami Center
Wed 10:30:07 AM 28.8206 -80.5039 258° West 339 390 14,000 -629 Descending Miami Center
Wed 10:31:09 AM 28.8053 -80.6108 261° West 330 380 13,200 -1,306 Descending Miami Center
Wed 10:32:11 AM 28.7517 -80.6994 235° Southwest 325 374 11,300 -1,415 Descending Miami Center
Wed 10:33:12 AM 28.7008 -80.7808 235° Southwest 302 348 10,300 -1,122 Descending Miami Center
Wed 10:34:14 AM 28.6556 -80.8497 233° Southwest 286 329 9,000 -629 Descending Miami Center
Wed 10:35:16 AM 28.6125 -80.9158 233° Southwest 277 319 9,000 -339 Level Miami Center
Wed 10:36:18 AM 28.5711 -80.9803 234° Southwest 253 291 8,300 -878 Descending Miami Center
Wed 10:37:19 AM 28.5558 -81.0536 257° West 246 283 7,200 -1,073 Descending Miami Center
Wed 10:38:21 AM 28.5483 -81.1419 264° West 238 274 6,100 -1,065 Descending Miami Center
Wed 10:39:23 AM 28.5958 -81.1653 337° Northwest 210 242 5,000 -1,016 Descending Miami Center
Wed 10:40:25 AM 28.6258 -81.2203 302° West 198 228 4,000 -484 Descending Miami Center
Wed 10:41:27 AM 28.6428 -81.2781 288° West 197 227 4,000 -283 Level Miami Center
Wed 10:42:32 AM 28.5833 -81.3000 198° South 185 213 3,400 -864 Descending Orlando TRACON
Wed 10:43:32 AM 28.5333 -81.3000 180° South 156 180 2,200 -1,050 Descending Orlando TRACON
Wed 10:44:32 AM 28.5000 -81.3000 180° South 146 168 1,300 -800 Descending Orlando TRACON
Wed 10:45:32 AM 28.4667 -81.3000 180° South 146 168 600 -700 Descending Orlando TRACON
Wed 10:47:00 AM 28.4294 -81.3090 180° South  Level Estimated

Login

Don't have an account? Register now (free) for customized features, flight alerts, and more!